Terminal Aerodrome Forecast
Issued by NWS Shreveport, LA

Home | Current Version | Previous Version | Text Only | Print | Product List | Glossary On
Versions: 1 2 3 4 5 6 7 8 9 10 11 12 13 14 15 16 17 18 19 20
000
FTUS44 KSHV 012323
TAFSHV
TAF
KSHV 012323Z 0200/0224 01007KT P6SM SCT045
      TEMPO 0210/0214 3SM BR BKN015
     FM021400 10004KT P6SM BKN050
     FM021800 05006KT P6SM SCT250=

USA.gov is the U.S. government's official web portal to all federal, state and local government web resources and services.